sensor_id;sensor_type;location;lat;lon;timestamp;P1;durP1;ratioP1;P2;durP2;ratioP2
74957;SDS011;63741;42.624;26.276;2023-07-24T00:00:23;9.52;;;4.53;;
74957;SDS011;63741;42.624;26.276;2023-07-24T00:02:50;8.55;;;3.70;;
74957;SDS011;63741;42.624;26.276;2023-07-24T00:05:16;7.00;;;3.80;;
74957;SDS011;63741;42.624;26.276;2023-07-24T00:07:43;7.05;;;4.45;;
74957;SDS011;63741;42.624;26.276;2023-07-24T00:10:10;8.60;;;4.50;;
74957;SDS011;63741;42.624;26.276;2023-07-24T00:12:37;8.93;;;4.30;;
74957;SDS011;63741;42.624;26.276;2023-07-24T00:15:04;8.43;;;4.60;;
74957;SDS011;63741;42.624;26.276;2023-07-24T00:17:32;9.10;;;5.10;;
74957;SDS011;63741;42.624;26.276;2023-07-24T00:19:59;6.50;;;4.50;;
74957;SDS011;63741;42.624;26.276;2023-07-24T00:22:26;8.20;;;4.35;;
74957;SDS011;63741;42.624;26.276;2023-07-24T00:24:52;7.25;;;4.45;;
74957;SDS011;63741;42.624;26.276;2023-07-24T00:27:19;6.13;;;4.30;;
74957;SDS011;63741;42.624;26.276;2023-07-24T00:29:46;9.10;;;4.50;;
74957;SDS011;63741;42.624;26.276;2023-07-24T00:32:13;7.50;;;4.63;;
74957;SDS011;63741;42.624;26.276;2023-07-24T00:34:40;7.53;;;4.55;;
74957;SDS011;63741;42.624;26.276;2023-07-24T00:37:07;6.30;;;4.53;;
74957;SDS011;63741;42.624;26.276;2023-07-24T00:39:34;6.43;;;4.50;;
74957;SDS011;63741;42.624;26.276;2023-07-24T00:42:01;7.75;;;4.22;;
74957;SDS011;63741;42.624;26.276;2023-07-24T00:44:28;8.15;;;4.50;;
74957;SDS011;63741;42.624;26.276;2023-07-24T00:46:55;8.05;;;4.53;;
74957;SDS011;63741;42.624;26.276;2023-07-24T00:49:22;6.07;;;4.28;;
74957;SDS011;63741;42.624;26.276;2023-07-24T00:51:50;7.47;;;4.47;;
74957;SDS011;63741;42.624;26.276;2023-07-24T00:54:19;13.15;;;5.20;;
74957;SDS011;63741;42.624;26.276;2023-07-24T00:56:47;10.88;;;4.70;;
74957;SDS011;63741;42.624;26.276;2023-07-24T00:59:14;8.07;;;5.47;;
74957;SDS011;63741;42.624;26.276;2023-07-24T01:01:42;9.15;;;5.32;;
74957;SDS011;63741;42.624;26.276;2023-07-24T01:04:09;11.80;;;6.78;;
74957;SDS011;63741;42.624;26.276;2023-07-24T01:06:36;9.73;;;6.35;;
74957;SDS011;63741;42.624;26.276;2023-07-24T01:09:03;13.25;;;7.32;;
74957;SDS011;63741;42.624;26.276;2023-07-24T01:11:37;11.13;;;7.22;;
74957;SDS011;63741;42.624;26.276;2023-07-24T01:14:24;10.65;;;7.93;;
74957;SDS011;63741;42.624;26.276;2023-07-24T01:16:57;21.98;;;7.40;;
74957;SDS011;63741;42.624;26.276;2023-07-24T01:27:20;18.40;;;12.13;;
74957;SDS011;63741;42.624;26.276;2023-07-24T01:29:50;13.63;;;11.85;;
74957;SDS011;63741;42.624;26.276;2023-07-24T01:32:17;15.60;;;12.23;;
74957;SDS011;63741;42.624;26.276;2023-07-24T01:34:46;15.48;;;11.93;;
74957;SDS011;63741;42.624;26.276;2023-07-24T01:37:16;14.65;;;12.98;;
74957;SDS011;63741;42.624;26.276;2023-07-24T01:39:45;14.90;;;13.35;;
74957;SDS011;63741;42.624;26.276;2023-07-24T01:42:13;15.30;;;12.90;;
74957;SDS011;63741;42.624;26.276;2023-07-24T01:44:40;15.95;;;12.85;;
74957;SDS011;63741;42.624;26.276;2023-07-24T01:47:07;14.30;;;12.48;;
74957;SDS011;63741;42.624;26.276;2023-07-24T01:49:34;14.38;;;12.85;;
74957;SDS011;63741;42.624;26.276;2023-07-24T01:52:01;15.70;;;13.48;;
74957;SDS011;63741;42.624;26.276;2023-07-24T01:54:28;13.50;;;11.88;;
74957;SDS011;63741;42.624;26.276;2023-07-24T01:56:55;34.65;;;13.48;;
74957;SDS011;63741;42.624;26.276;2023-07-24T01:59:22;16.10;;;12.85;;
74957;SDS011;63741;42.624;26.276;2023-07-24T02:01:49;14.80;;;13.25;;
74957;SDS011;63741;42.624;26.276;2023-07-24T02:04:17;16.15;;;13.13;;
74957;SDS011;63741;42.624;26.276;2023-07-24T02:06:46;56.13;;;15.05;;
74957;SDS011;63741;42.624;26.276;2023-07-24T02:09:13;15.32;;;12.43;;
74957;SDS011;63741;42.624;26.276;2023-07-24T02:11:39;16.35;;;11.75;;
74957;SDS011;63741;42.624;26.276;2023-07-24T02:14:07;16.10;;;13.85;;
74957;SDS011;63741;42.624;26.276;2023-07-24T02:16:33;17.00;;;13.13;;
74957;SDS011;63741;42.624;26.276;2023-07-24T02:19:02;15.02;;;13.38;;
74957;SDS011;63741;42.624;26.276;2023-07-24T02:21:30;17.35;;;13.13;;
74957;SDS011;63741;42.624;26.276;2023-07-24T02:23:57;16.13;;;13.35;;
74957;SDS011;63741;42.624;26.276;2023-07-24T02:26:24;13.73;;;11.73;;
74957;SDS011;63741;42.624;26.276;2023-07-24T02:28:51;28.13;;;13.73;;
74957;SDS011;63741;42.624;26.276;2023-07-24T02:31:21;27.60;;;12.45;;
74957;SDS011;63741;42.624;26.276;2023-07-24T02:33:55;14.23;;;12.27;;
74957;SDS011;63741;42.624;26.276;2023-07-24T02:36:22;17.90;;;12.60;;
74957;SDS011;63741;42.624;26.276;2023-07-24T02:38:49;15.88;;;13.30;;
74957;SDS011;63741;42.624;26.276;2023-07-24T02:41:17;15.80;;;13.32;;
74957;SDS011;63741;42.624;26.276;2023-07-24T02:43:46;18.88;;;13.02;;
74957;SDS011;63741;42.624;26.276;2023-07-24T02:46:13;18.10;;;13.00;;
74957;SDS011;63741;42.624;26.276;2023-07-24T02:48:41;14.02;;;12.50;;
74957;SDS011;63741;42.624;26.276;2023-07-24T02:51:08;15.27;;;12.95;;
74957;SDS011;63741;42.624;26.276;2023-07-24T02:53:35;19.20;;;11.98;;
74957;SDS011;63741;42.624;26.276;2023-07-24T02:56:05;18.50;;;12.43;;
74957;SDS011;63741;42.624;26.276;2023-07-24T02:58:31;17.27;;;13.50;;
74957;SDS011;63741;42.624;26.276;2023-07-24T03:01:02;16.75;;;12.38;;
74957;SDS011;63741;42.624;26.276;2023-07-24T03:03:35;16.30;;;12.68;;
74957;SDS011;63741;42.624;26.276;2023-07-24T03:06:02;17.33;;;12.80;;
74957;SDS011;63741;42.624;26.276;2023-07-24T03:08:29;17.65;;;11.95;;
74957;SDS011;63741;42.624;26.276;2023-07-24T03:10:56;16.67;;;13.23;;
74957;SDS011;63741;42.624;26.276;2023-07-24T03:13:25;15.07;;;12.43;;
74957;SDS011;63741;42.624;26.276;2023-07-24T03:16:01;17.65;;;12.77;;
74957;SDS011;63741;42.624;26.276;2023-07-24T03:18:29;38.10;;;11.77;;
74957;SDS011;63741;42.624;26.276;2023-07-24T03:20:57;32.88;;;13.38;;
74957;SDS011;63741;42.624;26.276;2023-07-24T03:23:25;28.38;;;12.98;;
74957;SDS011;63741;42.624;26.276;2023-07-24T03:25:52;21.10;;;13.85;;
74957;SDS011;63741;42.624;26.276;2023-07-24T03:28:19;89.80;;;15.73;;
74957;SDS011;63741;42.624;26.276;2023-07-24T03:30:46;19.20;;;12.90;;
74957;SDS011;63741;42.624;26.276;2023-07-24T03:33:13;27.10;;;13.77;;
74957;SDS011;63741;42.624;26.276;2023-07-24T03:35:40;19.95;;;14.63;;
74957;SDS011;63741;42.624;26.276;2023-07-24T03:38:07;21.08;;;13.85;;
74957;SDS011;63741;42.624;26.276;2023-07-24T03:40:34;17.65;;;13.98;;
74957;SDS011;63741;42.624;26.276;2023-07-24T03:43:03;24.38;;;14.45;;
74957;SDS011;63741;42.624;26.276;2023-07-24T03:45:30;16.52;;;12.90;;
74957;SDS011;63741;42.624;26.276;2023-07-24T03:47:57;16.00;;;14.40;;
74957;SDS011;63741;42.624;26.276;2023-07-24T03:50:24;32.25;;;13.63;;
74957;SDS011;63741;42.624;26.276;2023-07-24T03:52:51;27.70;;;14.70;;
74957;SDS011;63741;42.624;26.276;2023-07-24T03:55:21;19.23;;;14.98;;
74957;SDS011;63741;42.624;26.276;2023-07-24T03:57:48;20.70;;;14.73;;
74957;SDS011;63741;42.624;26.276;2023-07-24T04:00:15;30.95;;;14.85;;
74957;SDS011;63741;42.624;26.276;2023-07-24T04:02:42;31.65;;;14.68;;
74957;SDS011;63741;42.624;26.276;2023-07-24T04:05:09;16.15;;;13.30;;
74957;SDS011;63741;42.624;26.276;2023-07-24T04:07:36;20.52;;;15.05;;
74957;SDS011;63741;42.624;26.276;2023-07-24T04:10:04;17.45;;;14.02;;
74957;SDS011;63741;42.624;26.276;2023-07-24T04:12:31;22.95;;;14.98;;
74957;SDS011;63741;42.624;26.276;2023-07-24T04:14:58;28.20;;;14.77;;
74957;SDS011;63741;42.624;26.276;2023-07-24T04:17:25;25.35;;;15.15;;
74957;SDS011;63741;42.624;26.276;2023-07-24T04:19:52;33.25;;;16.50;;
74957;SDS011;63741;42.624;26.276;2023-07-24T04:22:19;27.20;;;14.80;;
74957;SDS011;63741;42.624;26.276;2023-07-24T04:24:46;87.20;;;18.48;;
74957;SDS011;63741;42.624;26.276;2023-07-24T04:27:13;33.15;;;15.10;;
74957;SDS011;63741;42.624;26.276;2023-07-24T04:29:40;46.75;;;14.90;;
74957;SDS011;63741;42.624;26.276;2023-07-24T04:32:07;25.48;;;15.07;;
74957;SDS011;63741;42.624;26.276;2023-07-24T04:34:34;27.70;;;15.60;;
74957;SDS011;63741;42.624;26.276;2023-07-24T04:37:01;20.65;;;14.73;;
74957;SDS011;63741;42.624;26.276;2023-07-24T04:39:30;17.50;;;14.20;;
74957;SDS011;63741;42.624;26.276;2023-07-24T04:42:00;29.40;;;11.80;;
74957;SDS011;63741;42.624;26.276;2023-07-24T04:44:27;20.27;;;10.32;;
74957;SDS011;63741;42.624;26.276;2023-07-24T04:46:54;18.77;;;9.07;;
74957;SDS011;63741;42.624;26.276;2023-07-24T04:49:22;23.33;;;12.07;;
74957;SDS011;63741;42.624;26.276;2023-07-24T04:51:50;21.55;;;11.88;;
74957;SDS011;63741;42.624;26.276;2023-07-24T04:54:17;35.88;;;12.80;;
74957;SDS011;63741;42.624;26.276;2023-07-24T04:56:44;25.08;;;11.90;;
74957;SDS011;63741;42.624;26.276;2023-07-24T04:59:11;17.23;;;11.60;;
74957;SDS011;63741;42.624;26.276;2023-07-24T05:01:38;18.55;;;12.55;;
74957;SDS011;63741;42.624;26.276;2023-07-24T05:04:05;20.55;;;12.00;;
74957;SDS011;63741;42.624;26.276;2023-07-24T05:06:32;17.08;;;12.52;;
74957;SDS011;63741;42.624;26.276;2023-07-24T05:08:59;15.02;;;11.95;;
74957;SDS011;63741;42.624;26.276;2023-07-24T05:11:26;17.17;;;12.15;;
74957;SDS011;63741;42.624;26.276;2023-07-24T05:13:53;17.33;;;12.13;;
74957;SDS011;63741;42.624;26.276;2023-07-24T05:16:22;18.25;;;12.30;;
74957;SDS011;63741;42.624;26.276;2023-07-24T05:18:49;13.75;;;11.25;;
74957;SDS011;63741;42.624;26.276;2023-07-24T05:21:16;16.15;;;11.93;;
74957;SDS011;63741;42.624;26.276;2023-07-24T05:23:42;25.35;;;11.90;;
74957;SDS011;63741;42.624;26.276;2023-07-24T05:26:09;19.20;;;12.00;;
74957;SDS011;63741;42.624;26.276;2023-07-24T05:28:36;36.97;;;11.90;;
74957;SDS011;63741;42.624;26.276;2023-07-24T05:31:04;17.83;;;11.85;;
74957;SDS011;63741;42.624;26.276;2023-07-24T05:33:31;20.85;;;12.27;;
74957;SDS011;63741;42.624;26.276;2023-07-24T05:36:02;23.77;;;12.55;;
74957;SDS011;63741;42.624;26.276;2023-07-24T05:40:57;18.70;;;12.07;;
74957;SDS011;63741;42.624;26.276;2023-07-24T05:43:26;30.40;;;12.73;;
74957;SDS011;63741;42.624;26.276;2023-07-24T05:45:54;15.85;;;11.52;;
74957;SDS011;63741;42.624;26.276;2023-07-24T05:48:22;18.85;;;13.13;;
74957;SDS011;63741;42.624;26.276;2023-07-24T05:50:50;14.88;;;12.27;;
74957;SDS011;63741;42.624;26.276;2023-07-24T05:53:17;16.75;;;13.15;;
74957;SDS011;63741;42.624;26.276;2023-07-24T05:55:44;16.27;;;12.90;;
74957;SDS011;63741;42.624;26.276;2023-07-24T05:58:11;17.65;;;12.77;;
74957;SDS011;63741;42.624;26.276;2023-07-24T06:00:38;13.73;;;11.77;;
74957;SDS011;63741;42.624;26.276;2023-07-24T06:03:05;15.32;;;11.88;;
74957;SDS011;63741;42.624;26.276;2023-07-24T06:05:34;17.73;;;13.00;;
74957;SDS011;63741;42.624;26.276;2023-07-24T06:08:01;15.02;;;12.27;;
74957;SDS011;63741;42.624;26.276;2023-07-24T06:10:28;18.13;;;12.45;;
74957;SDS011;63741;42.624;26.276;2023-07-24T06:12:55;15.32;;;11.65;;
74957;SDS011;63741;42.624;26.276;2023-07-24T06:15:22;14.18;;;11.95;;
74957;SDS011;63741;42.624;26.276;2023-07-24T06:17:49;13.82;;;11.75;;
74957;SDS011;63741;42.624;26.276;2023-07-24T06:20:20;16.50;;;12.40;;
74957;SDS011;63741;42.624;26.276;2023-07-24T06:22:47;16.85;;;12.13;;
74957;SDS011;63741;42.624;26.276;2023-07-24T06:25:14;12.73;;;11.43;;
74957;SDS011;63741;42.624;26.276;2023-07-24T06:27:41;16.58;;;12.70;;
74957;SDS011;63741;42.624;26.276;2023-07-24T06:30:08;15.23;;;11.85;;
74957;SDS011;63741;42.624;26.276;2023-07-24T06:32:41;23.35;;;12.73;;
74957;SDS011;63741;42.624;26.276;2023-07-24T06:35:09;16.88;;;13.50;;
74957;SDS011;63741;42.624;26.276;2023-07-24T06:37:36;16.35;;;12.75;;
74957;SDS011;63741;42.624;26.276;2023-07-24T06:40:03;18.90;;;13.50;;
74957;SDS011;63741;42.624;26.276;2023-07-24T06:42:30;19.10;;;11.57;;
74957;SDS011;63741;42.624;26.276;2023-07-24T06:44:57;15.45;;;11.55;;
74957;SDS011;63741;42.624;26.276;2023-07-24T06:47:24;14.73;;;11.65;;
74957;SDS011;63741;42.624;26.276;2023-07-24T06:49:52;15.93;;;11.95;;
74957;SDS011;63741;42.624;26.276;2023-07-24T06:52:19;16.95;;;12.90;;
74957;SDS011;63741;42.624;26.276;2023-07-24T06:54:46;18.58;;;13.25;;
74957;SDS011;63741;42.624;26.276;2023-07-24T06:57:13;14.25;;;12.38;;
74957;SDS011;63741;42.624;26.276;2023-07-24T06:59:40;17.55;;;12.05;;
74957;SDS011;63741;42.624;26.276;2023-07-24T07:02:07;24.88;;;12.48;;
74957;SDS011;63741;42.624;26.276;2023-07-24T07:04:34;15.32;;;12.63;;
74957;SDS011;63741;42.624;26.276;2023-07-24T07:07:01;15.23;;;13.15;;
74957;SDS011;63741;42.624;26.276;2023-07-24T07:09:28;17.63;;;12.30;;
74957;SDS011;63741;42.624;26.276;2023-07-24T07:11:55;17.05;;;12.20;;
74957;SDS011;63741;42.624;26.276;2023-07-24T07:14:22;14.98;;;12.75;;
74957;SDS011;63741;42.624;26.276;2023-07-24T07:16:49;17.73;;;12.55;;
74957;SDS011;63741;42.624;26.276;2023-07-24T07:19:16;21.17;;;11.80;;
74957;SDS011;63741;42.624;26.276;2023-07-24T07:21:43;14.35;;;11.57;;
74957;SDS011;63741;42.624;26.276;2023-07-24T07:24:10;24.38;;;12.40;;
74957;SDS011;63741;42.624;26.276;2023-07-24T07:26:37;12.90;;;11.00;;
74957;SDS011;63741;42.624;26.276;2023-07-24T07:29:03;14.05;;;10.88;;
74957;SDS011;63741;42.624;26.276;2023-07-24T07:31:30;14.43;;;11.75;;
74957;SDS011;63741;42.624;26.276;2023-07-24T07:33:57;12.38;;;10.18;;
74957;SDS011;63741;42.624;26.276;2023-07-24T07:36:24;14.95;;;11.82;;
74957;SDS011;63741;42.624;26.276;2023-07-24T07:38:51;12.60;;;11.13;;
74957;SDS011;63741;42.624;26.276;2023-07-24T07:41:18;15.35;;;11.10;;
74957;SDS011;63741;42.624;26.276;2023-07-24T07:43:45;14.00;;;10.82;;
74957;SDS011;63741;42.624;26.276;2023-07-24T07:46:12;11.52;;;10.30;;
74957;SDS011;63741;42.624;26.276;2023-07-24T07:48:39;13.38;;;10.23;;
74957;SDS011;63741;42.624;26.276;2023-07-24T07:51:07;11.77;;;9.30;;
74957;SDS011;63741;42.624;26.276;2023-07-24T07:53:34;13.48;;;9.77;;
74957;SDS011;63741;42.624;26.276;2023-07-24T07:56:01;11.88;;;9.60;;
74957;SDS011;63741;42.624;26.276;2023-07-24T07:58:28;10.02;;;8.15;;
74957;SDS011;63741;42.624;26.276;2023-07-24T08:00:55;12.82;;;9.45;;
74957;SDS011;63741;42.624;26.276;2023-07-24T08:03:22;14.32;;;9.82;;
74957;SDS011;63741;42.624;26.276;2023-07-24T08:05:49;9.55;;;7.75;;
74957;SDS011;63741;42.624;26.276;2023-07-24T08:08:16;13.63;;;9.00;;
74957;SDS011;63741;42.624;26.276;2023-07-24T08:10:43;15.18;;;8.18;;
74957;SDS011;63741;42.624;26.276;2023-07-24T08:13:10;14.93;;;9.27;;
74957;SDS011;63741;42.624;26.276;2023-07-24T08:15:37;10.60;;;9.45;;
74957;SDS011;63741;42.624;26.276;2023-07-24T08:18:04;12.55;;;9.80;;
74957;SDS011;63741;42.624;26.276;2023-07-24T08:20:32;9.30;;;8.30;;
74957;SDS011;63741;42.624;26.276;2023-07-24T08:23:03;16.48;;;9.27;;
74957;SDS011;63741;42.624;26.276;2023-07-24T08:25:30;13.55;;;8.93;;
74957;SDS011;63741;42.624;26.276;2023-07-24T08:27:57;13.10;;;9.82;;
74957;SDS011;63741;42.624;26.276;2023-07-24T08:30:27;10.05;;;8.48;;
74957;SDS011;63741;42.624;26.276;2023-07-24T08:32:55;11.90;;;8.80;;
74957;SDS011;63741;42.624;26.276;2023-07-24T08:35:22;14.88;;;9.30;;
74957;SDS011;63741;42.624;26.276;2023-07-24T08:37:49;15.50;;;9.82;;
74957;SDS011;63741;42.624;26.276;2023-07-24T08:40:16;29.65;;;11.82;;
74957;SDS011;63741;42.624;26.276;2023-07-24T08:42:43;42.83;;;13.52;;
74957;SDS011;63741;42.624;26.276;2023-07-24T08:45:11;21.10;;;11.10;;
74957;SDS011;63741;42.624;26.276;2023-07-24T08:47:41;19.98;;;9.27;;
74957;SDS011;63741;42.624;26.276;2023-07-24T08:50:12;21.90;;;9.88;;
74957;SDS011;63741;42.624;26.276;2023-07-24T08:52:41;17.13;;;9.27;;
74957;SDS011;63741;42.624;26.276;2023-07-24T08:55:09;13.40;;;8.35;;
74957;SDS011;63741;42.624;26.276;2023-07-24T08:57:37;14.18;;;9.27;;
74957;SDS011;63741;42.624;26.276;2023-07-24T09:00:04;19.92;;;10.07;;
74957;SDS011;63741;42.624;26.276;2023-07-24T09:02:32;22.27;;;9.93;;
74957;SDS011;63741;42.624;26.276;2023-07-24T09:05:01;14.65;;;8.60;;
74957;SDS011;63741;42.624;26.276;2023-07-24T09:07:29;15.25;;;9.25;;
74957;SDS011;63741;42.624;26.276;2023-07-24T09:09:56;34.10;;;13.75;;
74957;SDS011;63741;42.624;26.276;2023-07-24T09:12:23;33.20;;;12.15;;
74957;SDS011;63741;42.624;26.276;2023-07-24T09:15:00;27.40;;;11.90;;
74957;SDS011;63741;42.624;26.276;2023-07-24T09:17:32;39.40;;;15.35;;
74957;SDS011;63741;42.624;26.276;2023-07-24T09:19:59;40.33;;;16.23;;
74957;SDS011;63741;42.624;26.276;2023-07-24T09:22:28;23.52;;;12.68;;
74957;SDS011;63741;42.624;26.276;2023-07-24T09:24:55;27.98;;;14.57;;
74957;SDS011;63741;42.624;26.276;2023-07-24T09:27:25;32.90;;;14.20;;
74957;SDS011;63741;42.624;26.276;2023-07-24T09:29:53;49.17;;;22.25;;
74957;SDS011;63741;42.624;26.276;2023-07-24T09:32:22;43.10;;;19.67;;
74957;SDS011;63741;42.624;26.276;2023-07-24T09:34:50;40.35;;;17.23;;
74957;SDS011;63741;42.624;26.276;2023-07-24T09:37:27;69.45;;;25.73;;
74957;SDS011;63741;42.624;26.276;2023-07-24T09:39:59;29.10;;;12.80;;
74957;SDS011;63741;42.624;26.276;2023-07-24T09:42:30;35.20;;;15.80;;
74957;SDS011;63741;42.624;26.276;2023-07-24T09:44:57;13.25;;;9.43;;
74957;SDS011;63741;42.624;26.276;2023-07-24T09:47:25;19.40;;;11.45;;
74957;SDS011;63741;42.624;26.276;2023-07-24T09:50:12;30.88;;;13.10;;
74957;SDS011;63741;42.624;26.276;2023-07-24T09:52:40;29.95;;;13.25;;
74957;SDS011;63741;42.624;26.276;2023-07-24T09:57:38;24.45;;;9.70;;
74957;SDS011;63741;42.624;26.276;2023-07-24T10:00:06;9.57;;;8.60;;
74957;SDS011;63741;42.624;26.276;2023-07-24T10:02:34;10.32;;;8.50;;
74957;SDS011;63741;42.624;26.276;2023-07-24T10:05:02;12.57;;;8.50;;
74957;SDS011;63741;42.624;26.276;2023-07-24T10:07:30;11.40;;;8.32;;
74957;SDS011;63741;42.624;26.276;2023-07-24T10:09:58;16.85;;;7.85;;
74957;SDS011;63741;42.624;26.276;2023-07-24T10:12:25;11.88;;;7.60;;
74957;SDS011;63741;42.624;26.276;2023-07-24T10:14:54;16.70;;;8.27;;
74957;SDS011;63741;42.624;26.276;2023-07-24T10:17:37;8.77;;;7.25;;
74957;SDS011;63741;42.624;26.276;2023-07-24T10:20:10;8.55;;;7.60;;
74957;SDS011;63741;42.624;26.276;2023-07-24T10:22:41;8.95;;;7.50;;
74957;SDS011;63741;42.624;26.276;2023-07-24T10:25:09;12.23;;;7.85;;
74957;SDS011;63741;42.624;26.276;2023-07-24T10:27:43;14.45;;;7.82;;
74957;SDS011;63741;42.624;26.276;2023-07-24T10:30:13;10.95;;;7.85;;
74957;SDS011;63741;42.624;26.276;2023-07-24T10:33:12;7.95;;;6.90;;
74957;SDS011;63741;42.624;26.276;2023-07-24T10:35:44;9.88;;;7.40;;
74957;SDS011;63741;42.624;26.276;2023-07-24T10:38:14;9.15;;;7.25;;
74957;SDS011;63741;42.624;26.276;2023-07-24T10:40:43;10.88;;;7.28;;
74957;SDS011;63741;42.624;26.276;2023-07-24T10:43:13;7.60;;;6.30;;
74957;SDS011;63741;42.624;26.276;2023-07-24T10:48:23;8.00;;;7.10;;
74957;SDS011;63741;42.624;26.276;2023-07-24T10:50:51;8.73;;;6.75;;
74957;SDS011;63741;42.624;26.276;2023-07-24T10:53:21;28.15;;;8.40;;
74957;SDS011;63741;42.624;26.276;2023-07-24T10:55:50;8.43;;;6.90;;
74957;SDS011;63741;42.624;26.276;2023-07-24T10:58:18;23.88;;;8.90;;
74957;SDS011;63741;42.624;26.276;2023-07-24T11:00:45;11.20;;;6.32;;
74957;SDS011;63741;42.624;26.276;2023-07-24T11:03:14;8.13;;;6.32;;
74957;SDS011;63741;42.624;26.276;2023-07-24T11:05:41;10.27;;;6.60;;
74957;SDS011;63741;42.624;26.276;2023-07-24T11:08:12;14.05;;;6.25;;
74957;SDS011;63741;42.624;26.276;2023-07-24T11:10:46;13.85;;;6.93;;
74957;SDS011;63741;42.624;26.276;2023-07-24T11:13:17;10.18;;;6.20;;
74957;SDS011;63741;42.624;26.276;2023-07-24T11:15:46;11.68;;;5.97;;
74957;SDS011;63741;42.624;26.276;2023-07-24T11:18:14;7.03;;;5.63;;
74957;SDS011;63741;42.624;26.276;2023-07-24T11:20:46;7.47;;;5.97;;
74957;SDS011;63741;42.624;26.276;2023-07-24T11:23:14;11.88;;;5.95;;
74957;SDS011;63741;42.624;26.276;2023-07-24T11:25:42;8.07;;;5.63;;
74957;SDS011;63741;42.624;26.276;2023-07-24T11:28:10;8.93;;;5.70;;
74957;SDS011;63741;42.624;26.276;2023-07-24T11:30:38;7.95;;;5.32;;
74957;SDS011;63741;42.624;26.276;2023-07-24T11:33:06;7.90;;;6.22;;
74957;SDS011;63741;42.624;26.276;2023-07-24T11:35:35;8.20;;;5.45;;
74957;SDS011;63741;42.624;26.276;2023-07-24T11:38:05;10.32;;;5.85;;
74957;SDS011;63741;42.624;26.276;2023-07-24T11:40:38;6.75;;;5.55;;
74957;SDS011;63741;42.624;26.276;2023-07-24T11:43:20;7.35;;;5.00;;
74957;SDS011;63741;42.624;26.276;2023-07-24T11:45:48;7.18;;;5.03;;
74957;SDS011;63741;42.624;26.276;2023-07-24T11:48:19;9.55;;;6.10;;
74957;SDS011;63741;42.624;26.276;2023-07-24T11:50:48;50.13;;;6.93;;
74957;SDS011;63741;42.624;26.276;2023-07-24T11:53:23;38.17;;;6.63;;
74957;SDS011;63741;42.624;26.276;2023-07-24T11:55:55;15.20;;;6.05;;
74957;SDS011;63741;42.624;26.276;2023-07-24T11:58:26;7.50;;;5.50;;
74957;SDS011;63741;42.624;26.276;2023-07-24T12:00:54;22.55;;;6.35;;
74957;SDS011;63741;42.624;26.276;2023-07-24T12:03:25;9.00;;;5.50;;
74957;SDS011;63741;42.624;26.276;2023-07-24T12:05:53;8.98;;;5.68;;
74957;SDS011;63741;42.624;26.276;2023-07-24T12:08:21;6.40;;;5.50;;
74957;SDS011;63741;42.624;26.276;2023-07-24T12:10:56;9.27;;;5.30;;
74957;SDS011;63741;42.624;26.276;2023-07-24T12:13:23;12.77;;;5.30;;
74957;SDS011;63741;42.624;26.276;2023-07-24T12:15:50;39.38;;;7.03;;
74957;SDS011;63741;42.624;26.276;2023-07-24T12:18:17;6.53;;;4.90;;
74957;SDS011;63741;42.624;26.276;2023-07-24T12:20:44;7.20;;;5.28;;
74957;SDS011;63741;42.624;26.276;2023-07-24T12:23:11;12.13;;;6.28;;
74957;SDS011;63741;42.624;26.276;2023-07-24T12:25:38;7.03;;;5.55;;
74957;SDS011;63741;42.624;26.276;2023-07-24T12:28:05;7.18;;;5.65;;
74957;SDS011;63741;42.624;26.276;2023-07-24T12:30:33;6.13;;;4.97;;
74957;SDS011;63741;42.624;26.276;2023-07-24T12:33:00;12.02;;;5.90;;
74957;SDS011;63741;42.624;26.276;2023-07-24T12:35:27;13.60;;;5.75;;
74957;SDS011;63741;42.624;26.276;2023-07-24T12:37:54;13.75;;;6.20;;
74957;SDS011;63741;42.624;26.276;2023-07-24T12:40:21;8.75;;;5.57;;
74957;SDS011;63741;42.624;26.276;2023-07-24T12:42:47;9.23;;;5.70;;
74957;SDS011;63741;42.624;26.276;2023-07-24T12:45:14;8.43;;;5.88;;
74957;SDS011;63741;42.624;26.276;2023-07-24T12:47:41;28.77;;;6.30;;
74957;SDS011;63741;42.624;26.276;2023-07-24T12:50:09;8.77;;;5.90;;
74957;SDS011;63741;42.624;26.276;2023-07-24T12:52:36;25.23;;;7.07;;
74957;SDS011;63741;42.624;26.276;2023-07-24T12:55:03;11.27;;;6.07;;
74957;SDS011;63741;42.624;26.276;2023-07-24T12:57:30;16.13;;;6.20;;
74957;SDS011;63741;42.624;26.276;2023-07-24T12:59:57;10.90;;;5.90;;
74957;SDS011;63741;42.624;26.276;2023-07-24T13:02:24;8.13;;;5.88;;
74957;SDS011;63741;42.624;26.276;2023-07-24T13:04:52;12.98;;;5.70;;
74957;SDS011;63741;42.624;26.276;2023-07-24T13:07:19;7.63;;;4.72;;
74957;SDS011;63741;42.624;26.276;2023-07-24T13:09:46;10.48;;;5.90;;
74957;SDS011;63741;42.624;26.276;2023-07-24T13:12:12;8.40;;;5.55;;
74957;SDS011;63741;42.624;26.276;2023-07-24T13:14:39;10.65;;;5.90;;
74957;SDS011;63741;42.624;26.276;2023-07-24T13:17:11;8.48;;;6.10;;
74957;SDS011;63741;42.624;26.276;2023-07-24T13:19:38;13.32;;;6.30;;
74957;SDS011;63741;42.624;26.276;2023-07-24T13:22:05;11.35;;;6.40;;
74957;SDS011;63741;42.624;26.276;2023-07-24T13:24:32;12.20;;;6.65;;
74957;SDS011;63741;42.624;26.276;2023-07-24T13:26:59;8.32;;;6.00;;
74957;SDS011;63741;42.624;26.276;2023-07-24T13:29:26;17.65;;;5.90;;
74957;SDS011;63741;42.624;26.276;2023-07-24T13:31:53;16.63;;;6.40;;
74957;SDS011;63741;42.624;26.276;2023-07-24T13:34:21;16.38;;;6.80;;
74957;SDS011;63741;42.624;26.276;2023-07-24T13:36:48;15.13;;;6.40;;
74957;SDS011;63741;42.624;26.276;2023-07-24T13:39:15;8.23;;;6.15;;
74957;SDS011;63741;42.624;26.276;2023-07-24T13:41:43;15.13;;;6.13;;
74957;SDS011;63741;42.624;26.276;2023-07-24T13:44:10;22.17;;;6.93;;
74957;SDS011;63741;42.624;26.276;2023-07-24T13:46:37;10.73;;;5.90;;
74957;SDS011;63741;42.624;26.276;2023-07-24T13:49:06;17.20;;;6.40;;
74957;SDS011;63741;42.624;26.276;2023-07-24T13:51:33;10.70;;;6.13;;
74957;SDS011;63741;42.624;26.276;2023-07-24T13:54:01;10.43;;;6.47;;
74957;SDS011;63741;42.624;26.276;2023-07-24T13:56:29;13.32;;;5.95;;
74957;SDS011;63741;42.624;26.276;2023-07-24T14:01:27;18.85;;;6.22;;
74957;SDS011;63741;42.624;26.276;2023-07-24T14:03:54;9.77;;;5.05;;
74957;SDS011;63741;42.624;26.276;2023-07-24T14:06:22;10.05;;;5.72;;
74957;SDS011;63741;42.624;26.276;2023-07-24T14:08:48;7.55;;;5.30;;
74957;SDS011;63741;42.624;26.276;2023-07-24T14:11:15;49.55;;;7.18;;
74957;SDS011;63741;42.624;26.276;2023-07-24T14:13:42;8.27;;;5.57;;
74957;SDS011;63741;42.624;26.276;2023-07-24T14:16:11;18.90;;;6.35;;
74957;SDS011;63741;42.624;26.276;2023-07-24T14:18:38;8.43;;;5.60;;
74957;SDS011;63741;42.624;26.276;2023-07-24T14:21:05;10.68;;;6.15;;
74957;SDS011;63741;42.624;26.276;2023-07-24T14:23:32;8.23;;;6.07;;
74957;SDS011;63741;42.624;26.276;2023-07-24T14:25:59;17.30;;;6.05;;
74957;SDS011;63741;42.624;26.276;2023-07-24T14:28:26;23.85;;;6.50;;
74957;SDS011;63741;42.624;26.276;2023-07-24T14:30:53;26.48;;;6.55;;
74957;SDS011;63741;42.624;26.276;2023-07-24T14:33:20;22.33;;;6.30;;
74957;SDS011;63741;42.624;26.276;2023-07-24T14:35:49;21.05;;;5.90;;
74957;SDS011;63741;42.624;26.276;2023-07-24T14:38:16;27.13;;;6.93;;
74957;SDS011;63741;42.624;26.276;2023-07-24T14:40:43;15.18;;;5.93;;